createdAt,value
2023-05-21T00:00:27.224Z,105.33
2023-05-21T00:01:27.310Z,107.59
2023-05-21T00:02:27.473Z,105.65
2023-05-21T00:03:27.614Z,106.62
2023-05-21T00:04:27.580Z,105.98
2023-05-21T00:05:27.653Z,106.94
2023-05-21T00:06:27.875Z,107.27
2023-05-21T00:07:27.813Z,106.94
2023-05-21T00:08:27.911Z,106.30
2023-05-21T00:09:27.948Z,106.94
2023-05-21T00:10:28.022Z,105.65
2023-05-21T00:11:28.131Z,105.98
2023-05-21T00:12:28.177Z,107.27
2023-05-21T00:13:28.250Z,106.62
2023-05-21T00:14:28.402Z,106.30
2023-05-21T00:15:28.411Z,107.27
2023-05-21T00:16:28.603Z,105.65
2023-05-21T00:17:28.639Z,106.94
2023-05-21T00:18:28.670Z,107.59
2023-05-21T00:19:29.737Z,105.65
2023-05-21T00:20:28.878Z,105.65
2023-05-21T00:21:28.928Z,107.91
2023-05-21T00:22:28.997Z,106.62
2023-05-21T00:23:29.068Z,106.94
2023-05-21T00:24:29.187Z,106.94
2023-05-21T00:25:29.257Z,106.62
2023-05-21T00:26:29.293Z,106.30
2023-05-21T00:27:29.354Z,107.27
2023-05-21T00:28:29.460Z,107.91
2023-05-21T00:29:29.561Z,108.23
2023-05-21T00:30:29.656Z,106.62
2023-05-21T00:31:29.720Z,105.65
2023-05-21T00:32:29.763Z,104.69
2023-05-21T00:33:29.845Z,107.27
2023-05-21T00:34:29.940Z,107.27
2023-05-21T00:35:30.053Z,107.59
2023-05-21T00:36:30.108Z,106.94
2023-05-21T00:37:30.211Z,106.30
2023-05-21T00:38:30.242Z,105.98
2023-05-21T00:39:30.316Z,108.23
2023-05-21T00:40:30.427Z,107.27
2023-05-21T00:41:30.472Z,107.27
2023-05-21T00:42:30.625Z,106.30
2023-05-21T00:43:30.623Z,107.91
2023-05-21T00:44:30.693Z,106.94
2023-05-21T00:45:30.787Z,106.94
2023-05-21T00:46:31.130Z,107.59
2023-05-21T00:47:30.984Z,106.62
2023-05-21T00:48:31.034Z,106.62
2023-05-21T00:49:31.107Z,106.62
2023-05-21T00:50:31.215Z,105.98
2023-05-21T00:51:31.356Z,105.65
2023-05-21T00:52:31.469Z,106.94
2023-05-21T00:53:31.476Z,105.65
2023-05-21T00:54:31.541Z,106.30
2023-05-21T00:55:31.633Z,107.27
2023-05-21T00:56:31.715Z,105.98
2023-05-21T00:57:31.835Z,105.33
2023-05-21T00:58:31.878Z,105.98
2023-05-21T00:59:31.956Z,107.27
2023-05-21T01:00:32.029Z,106.30
2023-05-21T01:01:32.139Z,107.59
2023-05-21T01:02:32.257Z,106.62
2023-05-21T01:03:32.341Z,105.98
2023-05-21T01:04:32.365Z,105.98
2023-05-21T01:05:32.455Z,105.33
2023-05-21T01:06:32.531Z,107.27
2023-05-21T01:07:32.634Z,107.27
2023-05-21T01:08:32.701Z,105.98
2023-05-21T01:09:35.643Z,105.65
2023-05-21T01:10:32.910Z,107.59
2023-05-21T01:11:32.947Z,107.27
2023-05-21T01:12:33.048Z,106.94
2023-05-21T01:13:33.123Z,106.30
2023-05-21T01:14:33.194Z,105.33
2023-05-21T01:15:33.351Z,107.27
2023-05-21T01:16:33.372Z,107.27
2023-05-21T01:17:33.508Z,107.59
2023-05-21T01:18:33.527Z,105.65
2023-05-21T01:19:33.652Z,105.33
2023-05-21T01:20:33.655Z,107.27
2023-05-21T01:21:33.715Z,107.27
2023-05-21T01:22:33.835Z,106.30
2023-05-21T01:23:33.856Z,107.59
2023-05-21T01:24:33.966Z,107.91
2023-05-21T01:25:34.097Z,106.62
2023-05-21T01:26:34.124Z,105.65
2023-05-21T01:27:34.176Z,107.27
2023-05-21T01:28:34.282Z,106.62
2023-05-21T01:29:34.379Z,107.27
2023-05-21T01:30:34.446Z,105.65
2023-05-21T01:31:34.476Z,105.33
2023-05-21T01:32:34.592Z,105.98
2023-05-21T01:33:34.715Z,106.30
2023-05-21T01:34:34.684Z,108.23
2023-05-21T01:35:34.943Z,105.98
2023-05-21T01:36:34.828Z,107.27
2023-05-21T01:37:34.904Z,106.94
2023-05-21T01:38:34.995Z,106.94
2023-05-21T01:39:35.127Z,106.94
2023-05-21T01:40:35.202Z,105.65
2023-05-21T01:41:35.249Z,107.59
2023-05-21T01:42:35.322Z,107.59
2023-05-21T01:43:35.400Z,107.27
2023-05-21T01:44:35.543Z,107.91
2023-05-21T01:45:35.795Z,106.94
2023-05-21T01:46:35.699Z,105.98
2023-05-21T01:47:35.788Z,106.94
2023-05-21T01:48:35.817Z,107.91
2023-05-21T01:49:35.958Z,107.91
2023-05-21T01:50:36.033Z,107.27
2023-05-21T01:51:36.082Z,106.94
2023-05-21T01:52:36.153Z,106.94
2023-05-21T01:53:36.233Z,105.33
2023-05-21T01:54:36.309Z,106.62
2023-05-21T01:55:36.531Z,105.98
2023-05-21T01:56:36.503Z,105.33
2023-05-21T01:57:36.573Z,105.98
2023-05-21T01:58:36.658Z,107.27
2023-05-21T01:59:36.732Z,107.27
2023-05-21T02:00:37.181Z,105.98
2023-05-21T02:01:36.941Z,106.94
2023-05-21T02:02:37.030Z,105.01
2023-05-21T02:03:37.101Z,105.01
2023-05-21T02:04:37.124Z,105.98
2023-05-21T02:05:37.375Z,106.30
2023-05-21T02:06:37.291Z,104.69
2023-05-21T02:07:37.333Z,106.30
2023-05-21T02:08:37.417Z,106.62
2023-05-21T02:09:37.486Z,105.98
2023-05-21T02:10:37.573Z,105.65
2023-05-21T02:11:37.684Z,105.01
2023-05-21T02:12:37.754Z,105.98
2023-05-21T02:13:37.829Z,105.01
2023-05-21T02:14:37.908Z,107.27
2023-05-21T02:15:38.202Z,106.94
2023-05-21T02:16:38.374Z,105.65
2023-05-21T02:17:38.220Z,106.94
2023-05-21T02:18:38.246Z,108.23
2023-05-21T02:19:38.340Z,106.62
2023-05-21T02:20:38.391Z,105.65
2023-05-21T02:21:38.466Z,106.30
2023-05-21T02:22:38.550Z,105.98
2023-05-21T02:23:38.654Z,107.59
2023-05-21T02:24:38.714Z,106.94
2023-05-21T02:25:38.808Z,107.59
2023-05-21T02:26:38.829Z,107.27
2023-05-21T02:27:38.909Z,105.65
2023-05-21T02:28:39.001Z,105.65
2023-05-21T02:29:39.124Z,106.62
2023-05-21T02:30:39.165Z,106.62
2023-05-21T02:31:39.240Z,107.27
2023-05-21T02:32:39.388Z,105.65
2023-05-21T02:33:39.379Z,105.98
2023-05-21T02:34:39.442Z,106.30
2023-05-21T02:35:39.517Z,107.27
2023-05-21T02:36:39.616Z,105.33
2023-05-21T02:37:39.727Z,107.27
2023-05-21T02:38:39.786Z,105.65
2023-05-21T02:39:39.852Z,105.33
2023-05-21T02:40:39.947Z,107.59
2023-05-21T02:41:40.008Z,106.94
2023-05-21T02:42:40.319Z,105.65
2023-05-21T02:43:40.232Z,105.33
2023-05-21T02:44:40.272Z,108.23
2023-05-21T02:45:40.359Z,106.94
2023-05-21T02:46:40.425Z,105.98
2023-05-21T02:47:40.536Z,105.98
2023-05-21T02:48:40.607Z,106.62
2023-05-21T02:49:40.634Z,105.01
2023-05-21T02:50:40.719Z,105.65
2023-05-21T02:51:40.800Z,105.33
2023-05-21T02:52:40.858Z,107.59
2023-05-21T02:53:40.952Z,106.62
2023-05-21T02:54:41.055Z,106.62
2023-05-21T02:55:41.110Z,106.30
2023-05-21T02:56:41.177Z,106.62
2023-05-21T02:57:48.841Z,106.62
2023-05-21T02:58:41.349Z,107.27
2023-05-21T02:59:41.444Z,106.30
2023-05-21T03:00:41.546Z,105.98
2023-05-21T03:01:41.647Z,105.01
2023-05-21T03:02:41.728Z,107.27
2023-05-21T03:03:41.812Z,106.94
2023-05-21T03:04:41.847Z,107.27
2023-05-21T03:05:41.921Z,105.98
2023-05-21T03:06:42.005Z,105.33
2023-05-21T03:07:42.118Z,106.30
2023-05-21T03:08:42.210Z,107.59
2023-05-21T03:09:42.346Z,105.33
2023-05-21T03:10:42.309Z,106.94
2023-05-21T03:11:42.387Z,105.98
2023-05-21T03:12:42.467Z,104.69
2023-05-21T03:13:42.648Z,107.27
2023-05-21T03:14:42.685Z,105.98
2023-05-21T03:15:42.721Z,105.33
2023-05-21T03:16:42.846Z,107.27
2023-05-21T03:17:42.910Z,106.62
2023-05-21T03:18:42.947Z,107.91
2023-05-21T03:19:43.008Z,107.91
2023-05-21T03:20:43.091Z,107.59
2023-05-21T03:21:43.196Z,104.69
2023-05-21T03:22:43.233Z,106.94
2023-05-21T03:23:43.314Z,106.94
2023-05-21T03:24:43.403Z,107.27
2023-05-21T03:25:43.478Z,105.01
2023-05-21T03:26:43.582Z,105.98
2023-05-21T03:27:43.653Z,106.30
2023-05-21T03:28:43.715Z,106.30
2023-05-21T03:29:43.790Z,105.65
2023-05-21T03:30:43.875Z,106.62
2023-05-21T03:31:44.007Z,106.62
2023-05-21T03:32:44.074Z,105.98
2023-05-21T03:33:44.106Z,105.98
2023-05-21T03:34:44.188Z,105.98
2023-05-21T03:35:44.277Z,106.62
2023-05-21T03:36:44.354Z,105.33
2023-05-21T03:37:44.431Z,107.27
2023-05-21T03:38:44.547Z,106.94
2023-05-21T03:39:44.582Z,105.65
2023-05-21T03:40:44.649Z,106.94
2023-05-21T03:41:44.721Z,105.33
2023-05-21T03:42:44.825Z,106.62
2023-05-21T03:43:44.858Z,105.65
2023-05-21T03:44:44.939Z,105.98
2023-05-21T03:45:45.140Z,106.62
2023-05-21T03:46:45.129Z,106.62
2023-05-21T03:47:45.186Z,105.01
2023-05-21T03:48:45.250Z,105.98
2023-05-21T03:49:45.330Z,106.62
2023-05-21T03:50:45.413Z,105.65
2023-05-21T03:51:45.516Z,107.27
2023-05-21T03:52:45.590Z,105.33
2023-05-21T03:53:45.662Z,107.27
2023-05-21T03:54:45.774Z,105.33
2023-05-21T03:55:45.826Z,105.65
2023-05-21T03:56:45.890Z,106.62
2023-05-21T03:57:45.958Z,105.01
2023-05-21T03:58:46.053Z,105.98
2023-05-21T03:59:46.175Z,106.62
2023-05-21T04:00:46.211Z,107.27
2023-05-21T04:01:46.332Z,107.59
2023-05-21T04:02:46.504Z,105.65
2023-05-21T04:03:46.824Z,106.94
2023-05-21T04:04:46.583Z,107.91
2023-05-21T04:05:46.666Z,106.30
2023-05-21T04:06:46.688Z,105.33
2023-05-21T04:07:46.776Z,106.94
2023-05-21T04:08:46.856Z,105.98
2023-05-21T04:09:46.929Z,106.94
2023-05-21T04:10:47.054Z,107.27
2023-05-21T04:11:47.137Z,105.98
2023-05-21T04:12:47.161Z,105.65
2023-05-21T04:13:47.247Z,105.01
2023-05-21T04:14:47.342Z,105.65
2023-05-21T04:15:47.422Z,106.62
2023-05-21T04:16:47.527Z,105.33
2023-05-21T04:17:47.666Z,107.27
2023-05-21T04:18:47.730Z,106.30
2023-05-21T04:19:47.829Z,106.30
2023-05-21T04:20:47.866Z,106.62
2023-05-21T04:21:47.972Z,105.65
2023-05-21T04:22:48.130Z,106.30
2023-05-21T04:23:48.162Z,106.94
2023-05-21T04:24:48.279Z,105.65
2023-05-21T04:25:48.312Z,106.94
2023-05-21T04:26:48.417Z,105.98
2023-05-21T04:27:48.511Z,105.65
2023-05-21T04:28:48.612Z,107.27
2023-05-21T04:29:50.605Z,107.27
2023-05-21T04:30:48.792Z,107.91
2023-05-21T04:31:48.896Z,106.30
2023-05-21T04:32:48.992Z,105.33
2023-05-21T04:33:49.024Z,105.65
2023-05-21T04:34:49.080Z,105.33
2023-05-21T04:35:49.175Z,105.01
2023-05-21T04:36:49.246Z,107.59
2023-05-21T04:37:49.388Z,105.33
2023-05-21T04:38:49.462Z,105.98
2023-05-21T04:39:49.493Z,105.65
2023-05-21T04:40:49.587Z,108.23
2023-05-21T04:41:49.662Z,107.91
2023-05-21T04:42:49.744Z,106.94
2023-05-21T04:43:49.881Z,108.23
2023-05-21T04:44:49.904Z,107.59
2023-05-21T04:45:49.982Z,105.33
2023-05-21T04:46:50.119Z,107.91
2023-05-21T04:47:50.193Z,106.30
2023-05-21T04:48:50.243Z,107.27
2023-05-21T04:49:50.309Z,106.62
2023-05-21T04:50:50.385Z,107.27
2023-05-21T04:51:50.485Z,105.98
2023-05-21T04:52:50.513Z,107.27
2023-05-21T04:53:50.646Z,106.30
2023-05-21T04:54:50.669Z,106.94
2023-05-21T04:55:50.743Z,107.91
2023-05-21T04:56:50.858Z,107.59
2023-05-21T04:57:50.886Z,105.98
2023-05-21T04:58:50.958Z,105.01
2023-05-21T04:59:51.045Z,106.62
2023-05-21T05:00:51.229Z,107.27
2023-05-21T05:01:51.233Z,105.65
2023-05-21T05:02:51.353Z,107.59
2023-05-21T05:03:51.406Z,105.33
2023-05-21T05:04:51.518Z,107.59
2023-05-21T05:05:51.559Z,106.94
2023-05-21T05:06:51.675Z,107.59
2023-05-21T05:07:51.729Z,107.27
2023-05-21T05:08:51.827Z,106.30
2023-05-21T05:09:51.896Z,106.94
2023-05-21T05:10:52.017Z,106.62
2023-05-21T05:11:52.047Z,107.91
2023-05-21T05:12:52.117Z,105.98
2023-05-21T05:13:52.209Z,106.30
2023-05-21T05:14:52.293Z,106.62
2023-05-21T05:15:54.453Z,107.91
2023-05-21T05:16:52.587Z,106.30
2023-05-21T05:17:52.583Z,107.59
2023-05-21T05:18:52.680Z,105.65
2023-05-21T05:19:52.695Z,107.59
2023-05-21T05:20:52.796Z,105.65
2023-05-21T05:21:52.882Z,107.91
2023-05-21T05:22:53.034Z,106.94
2023-05-21T05:23:53.044Z,106.62
2023-05-21T05:24:53.134Z,106.94
2023-05-21T05:25:53.217Z,107.27
2023-05-21T05:26:53.301Z,105.98
2023-05-21T05:27:53.394Z,105.33
2023-05-21T05:28:53.484Z,106.62
2023-05-21T05:29:53.555Z,106.62
2023-05-21T05:30:53.652Z,107.27
2023-05-21T05:31:53.777Z,106.30
2023-05-21T05:32:53.888Z,106.62
2023-05-21T05:33:53.968Z,106.62
2023-05-21T05:34:53.978Z,106.30
2023-05-21T05:35:54.064Z,105.65
2023-05-21T05:36:54.146Z,105.65
2023-05-21T05:37:54.223Z,107.59
2023-05-21T05:38:54.348Z,107.27
2023-05-21T05:39:54.391Z,106.30
2023-05-21T05:40:54.448Z,106.94
2023-05-21T05:41:54.527Z,107.59
2023-05-21T05:42:54.620Z,106.94
2023-05-21T05:43:54.714Z,106.62
2023-05-21T05:44:54.769Z,107.91
2023-05-21T05:45:54.903Z,106.62
2023-05-21T05:46:54.950Z,106.30
2023-05-21T05:47:55.075Z,106.30
2023-05-21T05:48:55.145Z,106.30
2023-05-21T05:49:55.190Z,107.59
2023-05-21T05:50:55.237Z,106.30
2023-05-21T05:51:55.307Z,105.65
2023-05-21T05:52:55.393Z,106.30
2023-05-21T05:53:55.481Z,107.59
2023-05-21T05:54:55.600Z,106.62
2023-05-21T05:55:55.675Z,106.62
2023-05-21T05:56:55.746Z,107.91
2023-05-21T05:57:55.821Z,106.62
2023-05-21T05:58:55.886Z,106.62
2023-05-21T05:59:55.970Z,105.65
2023-05-21T06:00:56.074Z,105.98
2023-05-21T06:01:56.218Z,106.30
2023-05-21T06:02:56.291Z,107.59
2023-05-21T06:03:56.314Z,107.27
2023-05-21T06:04:56.393Z,106.30
2023-05-21T06:05:56.578Z,107.59
2023-05-21T06:06:56.529Z,105.98
2023-05-21T06:07:56.613Z,105.65
2023-05-21T06:08:56.696Z,106.30
2023-05-21T06:09:56.766Z,106.94
2023-05-21T06:10:56.870Z,107.27
2023-05-21T06:11:56.911Z,106.62
2023-05-21T06:12:56.984Z,107.59
2023-05-21T06:13:57.137Z,106.30
2023-05-21T06:14:57.140Z,107.59
2023-05-21T06:15:57.348Z,107.59
2023-05-21T06:16:57.306Z,107.59
2023-05-21T06:17:57.444Z,106.30
2023-05-21T06:18:57.528Z,107.27
2023-05-21T06:19:57.635Z,106.94
2023-05-21T06:20:57.666Z,107.27
2023-05-21T06:21:57.785Z,106.94
2023-05-21T06:22:57.799Z,106.30
2023-05-21T06:23:57.866Z,105.65
2023-05-21T06:24:58.158Z,107.91
2023-05-21T06:25:58.061Z,106.62
2023-05-21T06:26:58.184Z,106.30
2023-05-21T06:27:58.216Z,107.59
2023-05-21T06:28:58.296Z,107.91
2023-05-21T06:29:58.379Z,106.30
2023-05-21T06:30:58.465Z,107.27
2023-05-21T06:31:58.587Z,107.27
2023-05-21T06:32:58.730Z,105.65
2023-05-21T06:33:58.841Z,106.94
2023-05-21T06:34:58.780Z,105.98
2023-05-21T06:35:58.853Z,107.59
2023-05-21T06:36:59.048Z,106.94
2023-05-21T06:37:59.058Z,107.27
2023-05-21T06:38:59.092Z,106.30
2023-05-21T06:39:59.186Z,107.27
2023-05-21T06:40:59.260Z,108.55
2023-05-21T06:41:59.322Z,106.30
2023-05-21T06:42:59.427Z,105.65
2023-05-21T06:43:59.471Z,107.59
2023-05-21T06:44:59.551Z,108.23
2023-05-21T06:45:59.668Z,106.62
2023-05-21T06:46:59.705Z,105.98
2023-05-21T06:47:59.829Z,107.59
2023-05-21T06:48:59.890Z,106.94
2023-05-21T06:49:59.985Z,107.91
2023-05-21T06:51:00.061Z,107.27
2023-05-21T06:52:00.161Z,107.91
2023-05-21T06:53:00.251Z,106.62
2023-05-21T06:54:00.330Z,106.62
2023-05-21T06:55:00.503Z,106.62
2023-05-21T06:56:00.539Z,107.59
2023-05-21T06:57:00.568Z,106.62
2023-05-21T06:58:00.678Z,107.91
2023-05-21T06:59:00.754Z,108.23
2023-05-21T07:00:00.866Z,107.91
2023-05-21T07:01:00.956Z,105.98
2023-05-21T07:02:02.993Z,106.94
2023-05-21T07:03:01.197Z,106.30
2023-05-21T07:04:01.178Z,107.59
2023-05-21T07:05:01.288Z,107.91
2023-05-21T07:06:01.320Z,107.27
2023-05-21T07:07:01.444Z,108.55
2023-05-21T07:08:01.487Z,105.98
2023-05-21T07:09:01.575Z,106.94
2023-05-21T07:10:01.695Z,108.23
2023-05-21T07:11:01.754Z,107.27
2023-05-21T07:12:01.843Z,107.91
2023-05-21T07:13:01.913Z,106.62
2023-05-21T07:14:01.996Z,106.30
2023-05-21T07:15:02.077Z,107.59
2023-05-21T07:16:02.142Z,106.62
2023-05-21T07:17:02.299Z,108.23
2023-05-21T07:18:02.357Z,107.27
2023-05-21T07:19:02.392Z,106.62
2023-05-21T07:20:02.564Z,106.62
2023-05-21T07:21:02.538Z,107.27
2023-05-21T07:22:02.617Z,106.30
2023-05-21T07:23:02.711Z,108.23
2023-05-21T07:24:02.782Z,106.62
2023-05-21T07:25:02.892Z,107.27
2023-05-21T07:26:02.948Z,106.62
2023-05-21T07:27:04.712Z,107.59
2023-05-21T07:28:06.423Z,106.30
2023-05-21T07:29:03.149Z,107.59
2023-05-21T07:30:03.233Z,108.55
2023-05-21T07:31:03.421Z,107.59
2023-05-21T07:32:03.390Z,107.27
2023-05-21T07:33:03.477Z,108.23
2023-05-21T07:34:03.551Z,107.91
2023-05-21T07:35:03.635Z,107.59
2023-05-21T07:36:03.770Z,107.91
2023-05-21T07:37:03.870Z,106.30
2023-05-21T07:38:03.969Z,106.94
2023-05-21T07:39:03.994Z,108.23
2023-05-21T07:40:04.114Z,108.55
2023-05-21T07:41:04.141Z,108.55
2023-05-21T07:42:04.271Z,108.23
2023-05-21T07:43:04.300Z,108.23
2023-05-21T07:44:04.366Z,107.27
2023-05-21T07:45:04.515Z,108.23
2023-05-21T07:46:04.627Z,107.27
2023-05-21T07:47:04.663Z,107.27
2023-05-21T07:48:04.756Z,107.27
2023-05-21T07:49:04.823Z,108.55
2023-05-21T07:50:04.892Z,108.55
2023-05-21T07:51:04.984Z,108.88
2023-05-21T07:52:05.116Z,108.55
2023-05-21T07:53:05.255Z,107.59
2023-05-21T07:54:05.211Z,108.88
2023-05-21T07:55:05.387Z,106.94
2023-05-21T07:56:05.436Z,107.27
2023-05-21T07:57:05.445Z,107.27
2023-05-21T07:58:05.521Z,108.55
2023-05-21T07:59:05.625Z,107.27
2023-05-21T08:00:05.706Z,108.55
2023-05-21T08:01:05.761Z,107.59
2023-05-21T08:02:05.853Z,108.55
2023-05-21T08:03:06.068Z,107.59
2023-05-21T08:04:06.448Z,108.88
2023-05-21T08:05:06.241Z,108.23
2023-05-21T08:06:06.245Z,108.23
2023-05-21T08:07:06.319Z,107.59
2023-05-21T08:08:06.382Z,108.23
2023-05-21T08:09:06.488Z,107.91
2023-05-21T08:10:06.546Z,108.23
2023-05-21T08:11:06.790Z,108.23
2023-05-21T08:12:07.069Z,108.55
2023-05-21T08:13:06.833Z,107.59
2023-05-21T08:14:06.891Z,108.23
2023-05-21T08:15:07.149Z,107.27
2023-05-21T08:16:07.122Z,107.27
2023-05-21T08:17:07.126Z,107.59
2023-05-21T08:18:07.276Z,107.27
2023-05-21T08:19:07.347Z,108.88
2023-05-21T08:20:07.424Z,107.91
2023-05-21T08:21:07.463Z,108.23
2023-05-21T08:22:07.599Z,108.23
2023-05-21T08:23:07.632Z,107.27
2023-05-21T08:24:07.729Z,108.55
2023-05-21T08:25:07.814Z,108.23
2023-05-21T08:26:07.873Z,108.23
2023-05-21T08:27:07.969Z,108.88
2023-05-21T08:28:08.052Z,106.94
2023-05-21T08:29:08.128Z,107.59
2023-05-21T08:30:08.238Z,108.23
2023-05-21T08:31:08.448Z,107.91
2023-05-21T08:32:08.543Z,107.91
2023-05-21T08:33:08.531Z,107.27
2023-05-21T08:34:08.563Z,107.91
2023-05-21T08:35:08.764Z,107.91
2023-05-21T08:36:08.729Z,108.23
2023-05-21T08:37:08.845Z,108.88
2023-05-21T08:38:08.904Z,108.23
2023-05-21T08:39:09.011Z,107.59
2023-05-21T08:40:09.064Z,108.23
2023-05-21T08:41:09.127Z,108.55
2023-05-21T08:42:09.257Z,107.91
2023-05-21T08:43:09.291Z,108.55
2023-05-21T08:44:09.369Z,107.59
2023-05-21T08:45:09.451Z,106.94
2023-05-21T08:46:09.593Z,107.91
2023-05-21T08:47:10.312Z,107.91
2023-05-21T08:48:09.668Z,107.59
2023-05-21T08:49:09.803Z,108.23
2023-05-21T08:50:09.830Z,108.88
2023-05-21T08:51:10.218Z,107.91
2023-05-21T08:52:10.015Z,108.88
2023-05-21T08:53:19.737Z,107.91
2023-05-21T08:54:11.154Z,108.88
2023-05-21T08:55:10.254Z,108.23
2023-05-21T08:56:10.372Z,108.23
2023-05-21T08:57:10.409Z,108.88
2023-05-21T08:58:17.976Z,108.55
2023-05-21T08:59:10.552Z,107.91
2023-05-21T09:00:10.640Z,108.23
2023-05-21T09:01:10.772Z,107.91
2023-05-21T09:02:10.786Z,108.23
2023-05-21T09:03:10.940Z,107.27
2023-05-21T09:04:20.234Z,107.91
2023-05-21T09:05:12.052Z,108.88
2023-05-21T09:06:11.122Z,107.91
2023-05-21T09:07:11.195Z,107.91
2023-05-21T09:08:11.255Z,107.59
2023-05-21T09:09:11.352Z,108.23
2023-05-21T09:10:11.421Z,108.88
2023-05-21T09:11:11.483Z,108.23
2023-05-21T09:12:11.560Z,109.20
2023-05-21T09:13:11.640Z,107.59
2023-05-21T09:14:11.704Z,108.55
2023-05-21T09:15:11.788Z,108.55
2023-05-21T09:16:11.898Z,108.88
2023-05-21T09:17:11.942Z,109.20
2023-05-21T09:18:12.022Z,107.91
2023-05-21T09:19:12.170Z,108.88
2023-05-21T09:20:12.242Z,108.88
2023-05-21T09:21:12.226Z,107.27
2023-05-21T09:22:12.346Z,108.88
2023-05-21T09:23:12.380Z,107.91
2023-05-21T09:24:12.445Z,108.88
2023-05-21T09:25:12.534Z,108.55
2023-05-21T09:26:12.626Z,108.55
2023-05-21T09:27:12.694Z,108.23
2023-05-21T09:28:12.764Z,108.55
2023-05-21T09:29:12.850Z,107.59
2023-05-21T09:30:12.899Z,108.88
2023-05-21T09:31:13.019Z,108.88
2023-05-21T09:32:13.077Z,108.55
2023-05-21T09:33:13.224Z,109.20
2023-05-21T09:34:13.222Z,108.88
2023-05-21T09:35:13.278Z,107.59
2023-05-21T09:36:13.356Z,108.55
2023-05-21T09:37:23.807Z,107.59
2023-05-21T09:38:14.507Z,109.20
2023-05-21T09:39:13.604Z,107.27
2023-05-21T09:40:13.682Z,108.88
2023-05-21T09:41:13.768Z,107.59
2023-05-21T09:42:13.844Z,108.88
2023-05-21T09:43:13.919Z,107.91
2023-05-21T09:44:13.995Z,108.55
2023-05-21T09:45:14.074Z,108.55
2023-05-21T09:46:14.164Z,108.23
2023-05-21T09:47:14.209Z,109.20
2023-05-21T09:48:14.287Z,108.88
2023-05-21T09:49:14.377Z,108.23
2023-05-21T09:50:14.445Z,108.23
2023-05-21T09:51:14.542Z,107.59
2023-05-21T09:52:14.620Z,109.20
2023-05-21T09:53:14.676Z,108.23
2023-05-21T09:54:14.739Z,108.88
2023-05-21T09:55:14.824Z,108.88
2023-05-21T09:56:14.894Z,108.88
2023-05-21T09:57:14.970Z,107.91
2023-05-21T09:58:15.035Z,107.91
2023-05-21T09:59:15.110Z,108.88
2023-05-21T10:00:15.160Z,108.88
2023-05-21T10:01:15.255Z,108.55
2023-05-21T10:02:15.365Z,107.91
2023-05-21T10:03:15.460Z,108.88
2023-05-21T10:04:15.524Z,107.91
2023-05-21T10:05:15.567Z,109.20
2023-05-21T10:06:15.627Z,107.91
2023-05-21T10:07:15.702Z,109.20
2023-05-21T10:08:15.789Z,108.55
2023-05-21T10:09:15.854Z,108.55
2023-05-21T10:10:15.912Z,108.88
2023-05-21T10:11:15.980Z,108.55
2023-05-21T10:12:16.104Z,108.23
2023-05-21T10:13:16.421Z,108.88
2023-05-21T10:14:16.208Z,107.91
2023-05-21T10:15:16.261Z,108.23
2023-05-21T10:16:16.356Z,109.20
2023-05-21T10:17:16.415Z,108.55
2023-05-21T10:18:16.494Z,109.20
2023-05-21T10:19:16.621Z,108.88
2023-05-21T10:20:16.689Z,109.52
2023-05-21T10:21:16.708Z,107.91
2023-05-21T10:22:16.765Z,108.88
2023-05-21T10:23:16.872Z,108.55
2023-05-21T10:24:16.945Z,108.55
2023-05-21T10:25:17.037Z,108.55
2023-05-21T10:26:17.097Z,108.88
2023-05-21T10:27:17.166Z,108.55
2023-05-21T10:28:17.254Z,108.23
2023-05-21T10:29:19.419Z,108.55
2023-05-21T10:30:17.358Z,108.23
2023-05-21T10:31:17.449Z,107.59
2023-05-21T10:32:17.515Z,108.88
2023-05-21T10:33:17.608Z,109.20
2023-05-21T10:34:17.637Z,109.20
2023-05-21T10:35:17.719Z,108.23
2023-05-21T10:36:17.787Z,107.91
2023-05-21T10:37:17.850Z,108.55
2023-05-21T10:38:17.914Z,108.88
2023-05-21T10:39:18.011Z,108.55
2023-05-21T10:40:18.099Z,108.55
2023-05-21T10:41:18.185Z,108.88
2023-05-21T10:42:18.264Z,108.23
2023-05-21T10:43:18.350Z,108.88
2023-05-21T10:44:18.465Z,109.20
2023-05-21T10:45:18.561Z,109.20
2023-05-21T10:46:18.628Z,108.55
2023-05-21T10:47:18.689Z,108.88
2023-05-21T10:48:18.781Z,108.55
2023-05-21T10:49:18.824Z,108.23
2023-05-21T10:50:18.892Z,108.55
2023-05-21T10:51:18.972Z,108.23
2023-05-21T10:52:19.802Z,109.20
2023-05-21T10:53:19.153Z,109.20
2023-05-21T10:54:19.216Z,108.88
2023-05-21T10:55:19.304Z,108.55
2023-05-21T10:56:19.395Z,108.55
2023-05-21T10:57:19.495Z,108.55
2023-05-21T10:58:19.509Z,109.20
2023-05-21T10:59:19.616Z,108.55
2023-05-21T11:00:19.668Z,108.55
2023-05-21T11:01:19.800Z,109.52
2023-05-21T11:02:19.825Z,108.55
2023-05-21T11:03:20.004Z,109.20
2023-05-21T11:04:20.005Z,108.88
2023-05-21T11:05:20.061Z,109.20
2023-05-21T11:06:20.160Z,109.52
2023-05-21T11:07:20.222Z,109.20
2023-05-21T11:08:20.360Z,108.55
2023-05-21T11:09:20.447Z,108.88
2023-05-21T11:10:20.450Z,109.20
2023-05-21T11:11:20.510Z,109.20
2023-05-21T11:12:20.594Z,108.55
2023-05-21T11:13:20.688Z,109.20
2023-05-21T11:14:20.946Z,108.55
2023-05-21T11:15:20.848Z,108.55
2023-05-21T11:16:20.937Z,109.52
2023-05-21T11:17:21.082Z,109.20
2023-05-21T11:18:21.023Z,108.55
2023-05-21T11:19:21.136Z,108.88
2023-05-21T11:20:21.163Z,109.20
2023-05-21T11:21:21.236Z,109.20
2023-05-21T11:22:21.332Z,109.52
2023-05-21T11:23:21.386Z,108.88
2023-05-21T11:24:21.465Z,108.55
2023-05-21T11:25:21.523Z,107.91
2023-05-21T11:26:21.610Z,109.20
2023-05-21T11:27:21.688Z,108.88
2023-05-21T11:28:21.748Z,108.23
2023-05-21T11:29:21.830Z,109.20
2023-05-21T11:30:21.891Z,108.23
2023-05-21T11:31:21.966Z,109.52
2023-05-21T11:32:22.022Z,109.20
2023-05-21T11:33:22.136Z,108.55
2023-05-21T11:34:22.220Z,108.88
2023-05-21T11:35:22.302Z,109.20
2023-05-21T11:36:22.371Z,109.20
2023-05-21T11:37:22.435Z,108.55
2023-05-21T11:38:22.504Z,108.55
2023-05-21T11:39:22.627Z,108.23
2023-05-21T11:40:22.661Z,108.55
2023-05-21T11:41:22.720Z,108.23
2023-05-21T11:42:22.784Z,108.88
2023-05-21T11:43:22.866Z,108.88
2023-05-21T11:44:22.909Z,108.23
2023-05-21T11:45:23.013Z,108.55
2023-05-21T11:46:23.079Z,108.88
2023-05-21T11:47:23.141Z,108.88
2023-05-21T11:48:25.029Z,109.20
2023-05-21T11:49:23.281Z,108.88
2023-05-21T11:50:23.374Z,109.20
2023-05-21T11:51:23.452Z,108.88
2023-05-21T11:52:23.516Z,108.88
2023-05-21T11:53:23.568Z,108.88
2023-05-21T11:54:23.675Z,109.20
2023-05-21T11:55:23.736Z,109.52
2023-05-21T11:56:23.829Z,108.88
2023-05-21T11:57:23.898Z,108.88
2023-05-21T11:58:23.962Z,108.55
2023-05-21T11:59:24.043Z,109.52
2023-05-21T12:00:24.097Z,108.23
2023-05-21T12:01:24.163Z,108.55
2023-05-21T12:02:24.254Z,109.20
2023-05-21T12:03:24.401Z,108.55
2023-05-21T12:04:24.392Z,108.23
2023-05-21T12:05:24.440Z,109.20
2023-05-21T12:06:24.606Z,108.23
2023-05-21T12:07:24.601Z,109.20
2023-05-21T12:08:24.665Z,108.88
2023-05-21T12:09:24.725Z,109.52
2023-05-21T12:10:24.819Z,109.84
2023-05-21T12:11:24.891Z,108.55
2023-05-21T12:12:25.004Z,108.88
2023-05-21T12:13:25.101Z,109.20
2023-05-21T12:14:25.219Z,109.52
2023-05-21T12:15:25.296Z,109.20
2023-05-21T12:16:25.354Z,109.52
2023-05-21T12:17:25.443Z,109.20
2023-05-21T12:18:25.475Z,108.88
2023-05-21T12:19:25.661Z,109.20
2023-05-21T12:20:25.625Z,108.55
2023-05-21T12:21:25.674Z,109.84
2023-05-21T12:22:25.776Z,109.20
2023-05-21T12:23:25.862Z,109.52
2023-05-21T12:24:25.960Z,109.52
2023-05-21T12:25:26.028Z,108.23
2023-05-21T12:26:26.088Z,109.52
2023-05-21T12:27:26.162Z,109.52
2023-05-21T12:28:26.280Z,109.52
2023-05-21T12:29:26.349Z,109.20